sensor_id;sensor_type;location;lat;lon;timestamp;pressure;altitude;pressure_sealevel;temperature;humidity
60642;BME280;46837;52.446;-1.930;2024-03-17T00:00:09;100145.80;;;11.14;96.24
60642;BME280;46837;52.446;-1.930;2024-03-17T00:01:09;100143.73;;;11.14;96.39
60642;BME280;46837;52.446;-1.930;2024-03-17T00:02:09;100143.61;;;11.13;96.52
60642;BME280;46837;52.446;-1.930;2024-03-17T00:03:09;100137.06;;;11.16;96.45
60642;BME280;46837;52.446;-1.930;2024-03-17T00:04:09;100142.37;;;11.12;96.42
60642;BME280;46837;52.446;-1.930;2024-03-17T00:05:09;100139.24;;;11.15;96.45
60642;BME280;46837;52.446;-1.930;2024-03-17T00:06:09;100139.52;;;11.15;96.42
60642;BME280;46837;52.446;-1.930;2024-03-17T00:07:09;100138.20;;;11.13;96.39
60642;BME280;46837;52.446;-1.930;2024-03-17T00:08:09;100139.36;;;11.08;96.73
60642;BME280;46837;52.446;-1.930;2024-03-17T00:09:09;100144.27;;;11.10;96.94
60642;BME280;46837;52.446;-1.930;2024-03-17T00:10:09;100144.94;;;11.12;96.93
60642;BME280;46837;52.446;-1.930;2024-03-17T00:11:09;100149.52;;;11.14;96.72
60642;BME280;46837;52.446;-1.930;2024-03-17T00:12:09;100148.15;;;11.17;96.65
60642;BME280;46837;52.446;-1.930;2024-03-17T00:13:09;100148.11;;;11.19;96.45
60642;BME280;46837;52.446;-1.930;2024-03-17T00:14:09;100145.59;;;11.19;96.31
60642;BME280;46837;52.446;-1.930;2024-03-17T00:15:09;100144.61;;;11.19;96.39
60642;BME280;46837;52.446;-1.930;2024-03-17T00:16:09;100146.73;;;11.21;96.33
60642;BME280;46837;52.446;-1.930;2024-03-17T00:17:09;100145.75;;;11.21;96.24
60642;BME280;46837;52.446;-1.930;2024-03-17T00:18:09;100147.00;;;11.21;96.24
60642;BME280;46837;52.446;-1.930;2024-03-17T00:19:09;100143.73;;;11.22;96.23
60642;BME280;46837;52.446;-1.930;2024-03-17T00:20:13;100137.28;;;11.22;96.25
60642;BME280;46837;52.446;-1.930;2024-03-17T00:21:09;100136.89;;;11.26;96.29
60642;BME280;46837;52.446;-1.930;2024-03-17T00:22:09;100131.96;;;11.23;96.16
60642;BME280;46837;52.446;-1.930;2024-03-17T00:23:12;100126.38;;;11.23;96.30
60642;BME280;46837;52.446;-1.930;2024-03-17T00:24:09;100126.11;;;11.21;96.31
60642;BME280;46837;52.446;-1.930;2024-03-17T00:25:09;100120.80;;;11.23;96.39
60642;BME280;46837;52.446;-1.930;2024-03-17T00:26:09;100118.06;;;11.24;96.27
60642;BME280;46837;52.446;-1.930;2024-03-17T00:27:09;100113.87;;;11.22;96.31
60642;BME280;46837;52.446;-1.930;2024-03-17T00:28:09;100116.64;;;11.27;96.23
60642;BME280;46837;52.446;-1.930;2024-03-17T00:29:09;100116.87;;;11.29;96.05
60642;BME280;46837;52.446;-1.930;2024-03-17T00:30:12;100118.34;;;11.29;96.00
60642;BME280;46837;52.446;-1.930;2024-03-17T00:31:09;100113.75;;;11.28;96.03
60642;BME280;46837;52.446;-1.930;2024-03-17T00:32:09;100117.68;;;11.27;96.05
60642;BME280;46837;52.446;-1.930;2024-03-17T00:33:09;100116.75;;;11.24;96.18
60642;BME280;46837;52.446;-1.930;2024-03-17T00:34:09;100120.59;;;11.26;96.38
60642;BME280;46837;52.446;-1.930;2024-03-17T00:35:09;100119.34;;;11.26;96.32
60642;BME280;46837;52.446;-1.930;2024-03-17T00:36:09;100120.47;;;11.28;96.33
60642;BME280;46837;52.446;-1.930;2024-03-17T00:37:09;100124.96;;;11.29;96.17
60642;BME280;46837;52.446;-1.930;2024-03-17T00:38:13;100124.03;;;11.28;96.13
60642;BME280;46837;52.446;-1.930;2024-03-17T00:39:09;100122.57;;;11.27;96.17
60642;BME280;46837;52.446;-1.930;2024-03-17T00:40:09;100124.86;;;11.25;96.32
60642;BME280;46837;52.446;-1.930;2024-03-17T00:41:09;100121.78;;;11.23;96.30
60642;BME280;46837;52.446;-1.930;2024-03-17T00:42:09;100116.93;;;11.26;96.40
60642;BME280;46837;52.446;-1.930;2024-03-17T00:43:09;100117.15;;;11.22;96.58
60642;BME280;46837;52.446;-1.930;2024-03-17T00:44:09;100109.76;;;11.26;96.55
60642;BME280;46837;52.446;-1.930;2024-03-17T00:45:09;100108.77;;;11.28;96.38
60642;BME280;46837;52.446;-1.930;2024-03-17T00:46:09;100108.99;;;11.30;96.23
60642;BME280;46837;52.446;-1.930;2024-03-17T00:47:09;100101.45;;;11.26;96.26
60642;BME280;46837;52.446;-1.930;2024-03-17T00:48:09;100103.34;;;11.31;96.49
60642;BME280;46837;52.446;-1.930;2024-03-17T00:49:09;100102.03;;;11.30;96.21
60642;BME280;46837;52.446;-1.930;2024-03-17T00:50:09;100105.60;;;11.29;96.31
60642;BME280;46837;52.446;-1.930;2024-03-17T00:51:09;100104.93;;;11.30;96.26
60642;BME280;46837;52.446;-1.930;2024-03-17T00:52:09;100103.89;;;11.31;96.23
60642;BME280;46837;52.446;-1.930;2024-03-17T00:53:09;100106.90;;;11.30;96.34
60642;BME280;46837;52.446;-1.930;2024-03-17T00:54:09;100109.63;;;11.31;96.24
60642;BME280;46837;52.446;-1.930;2024-03-17T00:55:09;100105.27;;;11.29;96.30
60642;BME280;46837;52.446;-1.930;2024-03-17T00:56:09;100104.88;;;11.28;96.52
60642;BME280;46837;52.446;-1.930;2024-03-17T00:57:09;100105.60;;;11.29;96.45
60642;BME280;46837;52.446;-1.930;2024-03-17T00:58:09;100103.18;;;11.31;96.36
60642;BME280;46837;52.446;-1.930;2024-03-17T00:59:09;100100.73;;;11.32;96.25
60642;BME280;46837;52.446;-1.930;2024-03-17T01:00:09;100096.01;;;11.31;96.33
60642;BME280;46837;52.446;-1.930;2024-03-17T01:01:09;100089.29;;;11.32;96.40
60642;BME280;46837;52.446;-1.930;2024-03-17T01:02:09;100080.21;;;11.32;96.28
60642;BME280;46837;52.446;-1.930;2024-03-17T01:03:09;100079.61;;;11.32;96.36
60642;BME280;46837;52.446;-1.930;2024-03-17T01:04:09;100077.20;;;11.31;96.39
60642;BME280;46837;52.446;-1.930;2024-03-17T01:05:09;100076.87;;;11.32;96.45
60642;BME280;46837;52.446;-1.930;2024-03-17T01:06:09;100080.15;;;11.31;96.38
60642;BME280;46837;52.446;-1.930;2024-03-17T01:07:09;100073.87;;;11.29;96.47
60642;BME280;46837;52.446;-1.930;2024-03-17T01:08:09;100077.69;;;11.27;96.60
60642;BME280;46837;52.446;-1.930;2024-03-17T01:09:09;100081.20;;;11.29;96.72
60642;BME280;46837;52.446;-1.930;2024-03-17T01:10:10;100088.04;;;11.25;96.69
60642;BME280;46837;52.446;-1.930;2024-03-17T01:11:14;100089.51;;;11.28;96.87
60642;BME280;46837;52.446;-1.930;2024-03-17T01:12:09;100091.70;;;11.29;96.72
60642;BME280;46837;52.446;-1.930;2024-03-17T01:13:09;100087.75;;;11.31;96.72
60642;BME280;46837;52.446;-1.930;2024-03-17T01:14:09;100086.55;;;11.35;96.54
60642;BME280;46837;52.446;-1.930;2024-03-17T01:15:09;100088.90;;;11.31;96.45
60642;BME280;46837;52.446;-1.930;2024-03-17T01:16:09;100082.46;;;11.29;96.88
60642;BME280;46837;52.446;-1.930;2024-03-17T01:17:09;100083.44;;;11.32;96.79
60642;BME280;46837;52.446;-1.930;2024-03-17T01:18:09;100082.62;;;11.33;96.66
60642;BME280;46837;52.446;-1.930;2024-03-17T01:19:09;100086.29;;;11.33;96.58
60642;BME280;46837;52.446;-1.930;2024-03-17T01:20:09;100084.36;;;11.35;96.65
60642;BME280;46837;52.446;-1.930;2024-03-17T01:21:09;100076.99;;;11.30;96.65
60642;BME280;46837;52.446;-1.930;2024-03-17T01:22:09;100077.37;;;11.33;96.93
60642;BME280;46837;52.446;-1.930;2024-03-17T01:23:09;100072.20;;;11.38;96.79
60642;BME280;46837;52.446;-1.930;2024-03-17T01:24:09;100067.35;;;11.36;96.62
60642;BME280;46837;52.446;-1.930;2024-03-17T01:25:09;100068.11;;;11.35;96.68
60642;BME280;46837;52.446;-1.930;2024-03-17T01:26:09;100067.61;;;11.38;96.66
60642;BME280;46837;52.446;-1.930;2024-03-17T01:27:09;100065.54;;;11.40;96.61
60642;BME280;46837;52.446;-1.930;2024-03-17T01:28:09;100068.59;;;11.42;96.42
60642;BME280;46837;52.446;-1.930;2024-03-17T01:29:09;100066.39;;;11.41;96.39
60642;BME280;46837;52.446;-1.930;2024-03-17T01:30:09;100069.09;;;11.38;96.59
60642;BME280;46837;52.446;-1.930;2024-03-17T01:31:09;100066.50;;;11.44;96.73
60642;BME280;46837;52.446;-1.930;2024-03-17T01:32:09;100064.70;;;11.47;96.40
60642;BME280;46837;52.446;-1.930;2024-03-17T01:33:09;100064.64;;;11.45;96.18
60642;BME280;46837;52.446;-1.930;2024-03-17T01:34:09;100061.56;;;11.48;96.27
60642;BME280;46837;52.446;-1.930;2024-03-17T01:35:09;100061.05;;;11.40;96.46
60642;BME280;46837;52.446;-1.930;2024-03-17T01:36:09;100059.95;;;11.43;96.63
60642;BME280;46837;52.446;-1.930;2024-03-17T01:37:09;100053.65;;;11.42;96.50
60642;BME280;46837;52.446;-1.930;2024-03-17T01:38:09;100053.77;;;11.40;96.70
60642;BME280;46837;52.446;-1.930;2024-03-17T01:39:09;100055.42;;;11.41;96.69
60642;BME280;46837;52.446;-1.930;2024-03-17T01:40:11;100057.00;;;11.39;96.85
60642;BME280;46837;52.446;-1.930;2024-03-17T01:41:09;100056.77;;;11.41;96.78
60642;BME280;46837;52.446;-1.930;2024-03-17T01:42:09;100053.01;;;11.40;96.87
60642;BME280;46837;52.446;-1.930;2024-03-17T01:43:11;100045.06;;;11.42;96.78
60642;BME280;46837;52.446;-1.930;2024-03-17T01:44:09;100044.30;;;11.44;96.68
60642;BME280;46837;52.446;-1.930;2024-03-17T01:45:20;100039.63;;;11.46;96.56
60642;BME280;46837;52.446;-1.930;2024-03-17T01:46:12;100035.15;;;11.47;96.52
60642;BME280;46837;52.446;-1.930;2024-03-17T01:47:09;100037.98;;;11.48;96.39
60642;BME280;46837;52.446;-1.930;2024-03-17T01:48:13;100035.79;;;11.48;96.38
60642;BME280;46837;52.446;-1.930;2024-03-17T01:49:10;100032.25;;;11.46;96.42
60642;BME280;46837;52.446;-1.930;2024-03-17T01:50:09;100035.37;;;11.47;96.56
60642;BME280;46837;52.446;-1.930;2024-03-17T01:51:09;100037.82;;;11.48;96.64
60642;BME280;46837;52.446;-1.930;2024-03-17T01:52:09;100037.00;;;11.51;96.43
60642;BME280;46837;52.446;-1.930;2024-03-17T01:53:09;100034.10;;;11.50;96.37
60642;BME280;46837;52.446;-1.930;2024-03-17T01:54:09;100036.38;;;11.51;96.42
60642;BME280;46837;52.446;-1.930;2024-03-17T01:55:09;100032.61;;;11.52;96.36
60642;BME280;46837;52.446;-1.930;2024-03-17T01:56:09;100029.93;;;11.53;96.39
60642;BME280;46837;52.446;-1.930;2024-03-17T01:57:09;100025.48;;;11.56;96.17
60642;BME280;46837;52.446;-1.930;2024-03-17T01:58:10;100027.57;;;11.52;96.20
60642;BME280;46837;52.446;-1.930;2024-03-17T01:59:09;100021.80;;;11.46;96.51
60642;BME280;46837;52.446;-1.930;2024-03-17T02:00:11;100023.26;;;11.48;96.79
60642;BME280;46837;52.446;-1.930;2024-03-17T02:01:09;100021.18;;;11.50;96.65
60642;BME280;46837;52.446;-1.930;2024-03-17T02:02:09;100025.61;;;11.53;96.46
60642;BME280;46837;52.446;-1.930;2024-03-17T02:03:09;100020.73;;;11.52;96.39
60642;BME280;46837;52.446;-1.930;2024-03-17T02:04:09;100018.27;;;11.52;96.57
60642;BME280;46837;52.446;-1.930;2024-03-17T02:05:09;100022.38;;;11.55;96.46
60642;BME280;46837;52.446;-1.930;2024-03-17T02:06:10;100022.87;;;11.52;96.47
60642;BME280;46837;52.446;-1.930;2024-03-17T02:07:09;100021.29;;;11.54;96.38
60642;BME280;46837;52.446;-1.930;2024-03-17T02:08:09;100020.02;;;11.53;96.41
60642;BME280;46837;52.446;-1.930;2024-03-17T02:09:09;100020.94;;;11.58;96.49
60642;BME280;46837;52.446;-1.930;2024-03-17T02:10:09;100019.56;;;11.59;96.25
60642;BME280;46837;52.446;-1.930;2024-03-17T02:11:23;100013.72;;;11.56;96.31
60642;BME280;46837;52.446;-1.930;2024-03-17T02:12:09;100020.01;;;11.57;96.34
60642;BME280;46837;52.446;-1.930;2024-03-17T02:13:09;100013.78;;;11.53;96.50
60642;BME280;46837;52.446;-1.930;2024-03-17T02:14:10;100013.24;;;11.54;96.66
60642;BME280;46837;52.446;-1.930;2024-03-17T02:15:09;100015.20;;;11.56;96.54
60642;BME280;46837;52.446;-1.930;2024-03-17T02:16:09;100010.36;;;11.58;96.47
60642;BME280;46837;52.446;-1.930;2024-03-17T02:17:09;100006.56;;;11.53;96.49
60642;BME280;46837;52.446;-1.930;2024-03-17T02:18:09;100007.26;;;11.56;96.64
60642;BME280;46837;52.446;-1.930;2024-03-17T02:19:09;100004.62;;;11.59;96.53
60642;BME280;46837;52.446;-1.930;2024-03-17T02:20:10;100008.02;;;11.55;96.48
60642;BME280;46837;52.446;-1.930;2024-03-17T02:21:09;100005.89;;;11.57;96.65
60642;BME280;46837;52.446;-1.930;2024-03-17T02:22:13;100001.95;;;11.56;96.52
60642;BME280;46837;52.446;-1.930;2024-03-17T02:23:09;99998.54;;;11.59;96.58
60642;BME280;46837;52.446;-1.930;2024-03-17T02:24:09;99999.71;;;11.58;96.43
60642;BME280;46837;52.446;-1.930;2024-03-17T02:25:10;99996.20;;;11.56;96.54
60642;BME280;46837;52.446;-1.930;2024-03-17T02:26:09;100002.17;;;11.57;96.52
60642;BME280;46837;52.446;-1.930;2024-03-17T02:27:09;99996.74;;;11.59;96.32
60642;BME280;46837;52.446;-1.930;2024-03-17T02:28:09;99996.46;;;11.59;96.28
60642;BME280;46837;52.446;-1.930;2024-03-17T02:29:09;99994.99;;;11.60;96.28
60642;BME280;46837;52.446;-1.930;2024-03-17T02:30:12;99993.74;;;11.57;96.37
60642;BME280;46837;52.446;-1.930;2024-03-17T02:31:09;99991.63;;;11.62;96.48
60642;BME280;46837;52.446;-1.930;2024-03-17T02:32:10;99991.82;;;11.61;96.29
60642;BME280;46837;52.446;-1.930;2024-03-17T02:33:09;99985.94;;;11.63;96.33
60642;BME280;46837;52.446;-1.930;2024-03-17T02:34:09;99987.91;;;11.64;96.30
60642;BME280;46837;52.446;-1.930;2024-03-17T02:35:09;99987.25;;;11.63;96.20
60642;BME280;46837;52.446;-1.930;2024-03-17T02:36:09;99989.23;;;11.64;96.37
60642;BME280;46837;52.446;-1.930;2024-03-17T02:37:09;99986.86;;;11.66;96.28
60642;BME280;46837;52.446;-1.930;2024-03-17T02:38:10;99987.64;;;11.64;96.21
60642;BME280;46837;52.446;-1.930;2024-03-17T02:39:13;99985.59;;;11.66;96.28
60642;BME280;46837;52.446;-1.930;2024-03-17T02:40:09;99986.00;;;11.65;96.09
60642;BME280;46837;52.446;-1.930;2024-03-17T02:41:09;99990.23;;;11.61;96.35
60642;BME280;46837;52.446;-1.930;2024-03-17T02:42:09;99985.91;;;11.61;96.47
60642;BME280;46837;52.446;-1.930;2024-03-17T02:43:09;99983.59;;;11.65;96.47
60642;BME280;46837;52.446;-1.930;2024-03-17T02:44:09;99982.55;;;11.65;96.25
60642;BME280;46837;52.446;-1.930;2024-03-17T02:45:09;99985.45;;;11.64;96.37
60642;BME280;46837;52.446;-1.930;2024-03-17T02:46:11;99980.08;;;11.63;96.47
60642;BME280;46837;52.446;-1.930;2024-03-17T02:47:09;99982.00;;;11.63;96.42
60642;BME280;46837;52.446;-1.930;2024-03-17T02:48:09;99980.08;;;11.62;96.46
60642;BME280;46837;52.446;-1.930;2024-03-17T02:49:09;99978.39;;;11.63;96.57
60642;BME280;46837;52.446;-1.930;2024-03-17T02:50:09;99980.27;;;11.59;96.59
60642;BME280;46837;52.446;-1.930;2024-03-17T02:51:09;99974.30;;;11.59;96.91
60642;BME280;46837;52.446;-1.930;2024-03-17T02:52:09;99978.69;;;11.56;96.96
60642;BME280;46837;52.446;-1.930;2024-03-17T02:53:09;99977.69;;;11.60;97.13
60642;BME280;46837;52.446;-1.930;2024-03-17T02:54:09;99974.41;;;11.61;96.80
60642;BME280;46837;52.446;-1.930;2024-03-17T02:55:09;99976.38;;;11.59;96.69
60642;BME280;46837;52.446;-1.930;2024-03-17T02:56:09;99972.73;;;11.57;96.71
60642;BME280;46837;52.446;-1.930;2024-03-17T02:57:09;99971.25;;;11.57;96.87
60642;BME280;46837;52.446;-1.930;2024-03-17T02:58:09;99973.48;;;11.61;96.79
60642;BME280;46837;52.446;-1.930;2024-03-17T02:59:09;99970.25;;;11.59;96.69
60642;BME280;46837;52.446;-1.930;2024-03-17T03:00:09;99964.08;;;11.57;96.58
60642;BME280;46837;52.446;-1.930;2024-03-17T03:01:09;99968.58;;;11.53;96.74
60642;BME280;46837;52.446;-1.930;2024-03-17T03:02:09;99970.19;;;11.59;96.93
60642;BME280;46837;52.446;-1.930;2024-03-17T03:03:09;99967.77;;;11.64;96.72
60642;BME280;46837;52.446;-1.930;2024-03-17T03:04:09;99960.84;;;11.60;96.48
60642;BME280;46837;52.446;-1.930;2024-03-17T03:05:09;99965.32;;;11.61;96.65
60642;BME280;46837;52.446;-1.930;2024-03-17T03:06:11;99960.96;;;11.58;96.54
60642;BME280;46837;52.446;-1.930;2024-03-17T03:07:09;99956.95;;;11.61;96.71
60642;BME280;46837;52.446;-1.930;2024-03-17T03:08:09;99959.03;;;11.59;96.58
60642;BME280;46837;52.446;-1.930;2024-03-17T03:09:15;99954.57;;;11.55;96.73
60642;BME280;46837;52.446;-1.930;2024-03-17T03:10:09;99961.45;;;11.57;96.84
60642;BME280;46837;52.446;-1.930;2024-03-17T03:11:09;99955.34;;;11.53;96.74
60642;BME280;46837;52.446;-1.930;2024-03-17T03:12:09;99955.30;;;11.50;97.10
60642;BME280;46837;52.446;-1.930;2024-03-17T03:13:09;99959.30;;;11.50;97.18
60642;BME280;46837;52.446;-1.930;2024-03-17T03:14:09;99952.89;;;11.50;97.21
60642;BME280;46837;52.446;-1.930;2024-03-17T03:15:09;99954.59;;;11.50;97.17
60642;BME280;46837;52.446;-1.930;2024-03-17T03:16:09;99947.42;;;11.50;97.11
60642;BME280;46837;52.446;-1.930;2024-03-17T03:17:09;99954.77;;;11.46;97.12
60642;BME280;46837;52.446;-1.930;2024-03-17T03:18:09;99954.59;;;11.48;97.13
60642;BME280;46837;52.446;-1.930;2024-03-17T03:19:10;99953.66;;;11.49;97.08
60642;BME280;46837;52.446;-1.930;2024-03-17T03:20:09;99954.53;;;11.48;96.98
60642;BME280;46837;52.446;-1.930;2024-03-17T03:21:09;99953.53;;;11.52;96.97
60642;BME280;46837;52.446;-1.930;2024-03-17T03:22:09;99953.62;;;11.47;96.81
60642;BME280;46837;52.446;-1.930;2024-03-17T03:23:09;99949.79;;;11.47;97.06
60642;BME280;46837;52.446;-1.930;2024-03-17T03:24:09;99946.92;;;11.48;97.05
60642;BME280;46837;52.446;-1.930;2024-03-17T03:25:09;99948.37;;;11.46;97.05
60642;BME280;46837;52.446;-1.930;2024-03-17T03:26:09;99941.69;;;11.46;97.01
60642;BME280;46837;52.446;-1.930;2024-03-17T03:27:09;99944.83;;;11.44;96.96
60642;BME280;46837;52.446;-1.930;2024-03-17T03:28:09;99945.96;;;11.46;97.03
60642;BME280;46837;52.446;-1.930;2024-03-17T03:29:09;99948.71;;;11.43;96.61
60642;BME280;46837;52.446;-1.930;2024-03-17T03:30:09;99946.52;;;11.43;96.75
60642;BME280;46837;52.446;-1.930;2024-03-17T03:31:11;99947.90;;;11.41;96.80
60642;BME280;46837;52.446;-1.930;2024-03-17T03:32:09;99942.96;;;11.43;96.96
60642;BME280;46837;52.446;-1.930;2024-03-17T03:33:09;99946.03;;;11.43;96.85
60642;BME280;46837;52.446;-1.930;2024-03-17T03:34:10;99949.62;;;11.44;96.67
60642;BME280;46837;52.446;-1.930;2024-03-17T03:35:09;99947.79;;;11.40;96.56
60642;BME280;46837;52.446;-1.930;2024-03-17T03:36:09;99947.52;;;11.39;96.71
60642;BME280;46837;52.446;-1.930;2024-03-17T03:37:10;99946.50;;;11.37;96.73
60642;BME280;46837;52.446;-1.930;2024-03-17T03:38:09;99946.22;;;11.37;96.66
60642;BME280;46837;52.446;-1.930;2024-03-17T03:39:09;99947.49;;;11.31;96.83
60642;BME280;46837;52.446;-1.930;2024-03-17T03:40:13;99947.82;;;11.33;96.76
60642;BME280;46837;52.446;-1.930;2024-03-17T03:41:13;99940.25;;;11.35;96.82
60642;BME280;46837;52.446;-1.930;2024-03-17T03:42:09;99947.29;;;11.30;96.44
60642;BME280;46837;52.446;-1.930;2024-03-17T03:43:09;99944.88;;;11.29;96.55
60642;BME280;46837;52.446;-1.930;2024-03-17T03:44:09;99939.65;;;11.34;96.70
60642;BME280;46837;52.446;-1.930;2024-03-17T03:45:09;99941.24;;;11.35;96.42
60642;BME280;46837;52.446;-1.930;2024-03-17T03:46:09;99940.15;;;11.37;96.28
60642;BME280;46837;52.446;-1.930;2024-03-17T03:47:09;99939.32;;;11.34;96.15
60642;BME280;46837;52.446;-1.930;2024-03-17T03:48:09;99941.24;;;11.34;96.20
60642;BME280;46837;52.446;-1.930;2024-03-17T03:49:09;99932.36;;;11.29;96.11
60642;BME280;46837;52.446;-1.930;2024-03-17T03:50:09;99934.06;;;11.24;96.36
60642;BME280;46837;52.446;-1.930;2024-03-17T03:51:09;99934.88;;;11.26;96.54
60642;BME280;46837;52.446;-1.930;2024-03-17T03:52:09;99935.20;;;11.30;96.51
60642;BME280;46837;52.446;-1.930;2024-03-17T03:53:10;99934.11;;;11.24;96.26
60642;BME280;46837;52.446;-1.930;2024-03-17T03:54:09;99935.55;;;11.22;96.70
60642;BME280;46837;52.446;-1.930;2024-03-17T03:55:10;99933.68;;;11.26;96.63
60642;BME280;46837;52.446;-1.930;2024-03-17T03:56:10;99930.93;;;11.27;96.47
60642;BME280;46837;52.446;-1.930;2024-03-17T03:57:09;99930.97;;;11.32;96.33
60642;BME280;46837;52.446;-1.930;2024-03-17T03:58:09;99929.40;;;11.30;96.07
60642;BME280;46837;52.446;-1.930;2024-03-17T03:59:09;99926.68;;;11.26;96.10
60642;BME280;46837;52.446;-1.930;2024-03-17T04:00:15;99926.51;;;11.25;96.09
60642;BME280;46837;52.446;-1.930;2024-03-17T04:01:09;99929.15;;;11.22;96.28
60642;BME280;46837;52.446;-1.930;2024-03-17T04:02:09;99926.04;;;11.17;96.55
60642;BME280;46837;52.446;-1.930;2024-03-17T04:03:09;99928.38;;;11.20;96.61
60642;BME280;46837;52.446;-1.930;2024-03-17T04:04:09;99923.20;;;11.18;96.59
60642;BME280;46837;52.446;-1.930;2024-03-17T04:05:09;99924.86;;;11.15;96.68
60642;BME280;46837;52.446;-1.930;2024-03-17T04:06:09;99920.09;;;11.14;96.85
60642;BME280;46837;52.446;-1.930;2024-03-17T04:07:09;99917.91;;;11.13;96.87
60642;BME280;46837;52.446;-1.930;2024-03-17T04:08:09;99921.24;;;11.14;96.92
60642;BME280;46837;52.446;-1.930;2024-03-17T04:09:09;99916.32;;;11.15;96.93
60642;BME280;46837;52.446;-1.930;2024-03-17T04:10:09;99922.27;;;11.17;96.83
60642;BME280;46837;52.446;-1.930;2024-03-17T04:11:09;99924.58;;;11.14;96.76
60642;BME280;46837;52.446;-1.930;2024-03-17T04:12:09;99918.52;;;11.09;97.11
60642;BME280;46837;52.446;-1.930;2024-03-17T04:13:09;99916.82;;;11.11;97.26
60642;BME280;46837;52.446;-1.930;2024-03-17T04:14:09;99915.62;;;11.11;97.27
60642;BME280;46837;52.446;-1.930;2024-03-17T04:15:09;99912.98;;;11.15;97.16
60642;BME280;46837;52.446;-1.930;2024-03-17T04:16:09;99918.22;;;11.18;96.97
60642;BME280;46837;52.446;-1.930;2024-03-17T04:17:09;99917.08;;;11.19;96.80
60642;BME280;46837;52.446;-1.930;2024-03-17T04:18:09;99918.11;;;11.17;96.71
60642;BME280;46837;52.446;-1.930;2024-03-17T04:19:09;99916.04;;;11.17;96.84
60642;BME280;46837;52.446;-1.930;2024-03-17T04:20:10;99916.36;;;11.17;96.80
60642;BME280;46837;52.446;-1.930;2024-03-17T04:21:09;99921.19;;;11.14;96.86
60642;BME280;46837;52.446;-1.930;2024-03-17T04:22:09;99917.15;;;11.16;96.97
60642;BME280;46837;52.446;-1.930;2024-03-17T04:23:09;99915.60;;;11.17;96.90
60642;BME280;46837;52.446;-1.930;2024-03-17T04:24:09;99918.50;;;11.18;96.72
60642;BME280;46837;52.446;-1.930;2024-03-17T04:25:09;99915.61;;;11.15;96.67
60642;BME280;46837;52.446;-1.930;2024-03-17T04:26:10;99919.27;;;11.14;96.81
60642;BME280;46837;52.446;-1.930;2024-03-17T04:27:09;99913.60;;;11.10;96.99
60642;BME280;46837;52.446;-1.930;2024-03-17T04:28:09;99915.95;;;11.10;97.16
60642;BME280;46837;52.446;-1.930;2024-03-17T04:29:10;99915.53;;;11.02;97.26
60642;BME280;46837;52.446;-1.930;2024-03-17T04:30:09;99915.70;;;11.04;97.74
60642;BME280;46837;52.446;-1.930;2024-03-17T04:31:09;99912.91;;;11.05;97.58
60642;BME280;46837;52.446;-1.930;2024-03-17T04:32:09;99919.15;;;10.99;97.74
60642;BME280;46837;52.446;-1.930;2024-03-17T04:33:09;99913.64;;;11.02;97.98
60642;BME280;46837;52.446;-1.930;2024-03-17T04:34:09;99912.58;;;11.04;97.86
60642;BME280;46837;52.446;-1.930;2024-03-17T04:35:09;99909.36;;;11.03;97.73
60642;BME280;46837;52.446;-1.930;2024-03-17T04:36:09;99910.24;;;11.05;97.71
60642;BME280;46837;52.446;-1.930;2024-03-17T04:37:09;99910.78;;;11.05;97.65
60642;BME280;46837;52.446;-1.930;2024-03-17T04:38:09;99905.68;;;11.06;97.64
60642;BME280;46837;52.446;-1.930;2024-03-17T04:39:11;99906.01;;;11.08;97.58
60642;BME280;46837;52.446;-1.930;2024-03-17T04:40:12;99907.21;;;11.08;97.33
60642;BME280;46837;52.446;-1.930;2024-03-17T04:41:09;99906.61;;;11.06;97.48
60642;BME280;46837;52.446;-1.930;2024-03-17T04:42:09;99909.25;;;11.04;97.66
60642;BME280;46837;52.446;-1.930;2024-03-17T04:43:09;99908.54;;;11.05;97.72
60642;BME280;46837;52.446;-1.930;2024-03-17T04:44:09;99908.59;;;11.03;97.60
60642;BME280;46837;52.446;-1.930;2024-03-17T04:45:09;99908.04;;;11.03;97.83
60642;BME280;46837;52.446;-1.930;2024-03-17T04:46:09;99909.63;;;11.03;97.79
60642;BME280;46837;52.446;-1.930;2024-03-17T04:47:09;99909.90;;;11.03;97.81
60642;BME280;46837;52.446;-1.930;2024-03-17T04:48:09;99905.59;;;11.04;97.86
60642;BME280;46837;52.446;-1.930;2024-03-17T04:49:09;99904.60;;;11.03;97.73
60642;BME280;46837;52.446;-1.930;2024-03-17T04:50:09;99904.60;;;11.03;97.90
60642;BME280;46837;52.446;-1.930;2024-03-17T04:51:10;99903.47;;;11.02;97.89
60642;BME280;46837;52.446;-1.930;2024-03-17T04:52:09;99898.98;;;11.02;97.91
60642;BME280;46837;52.446;-1.930;2024-03-17T04:53:09;99900.72;;;11.05;97.86
60642;BME280;46837;52.446;-1.930;2024-03-17T04:54:09;99899.65;;;11.09;97.80
60642;BME280;46837;52.446;-1.930;2024-03-17T04:55:09;99901.54;;;11.05;97.64
60642;BME280;46837;52.446;-1.930;2024-03-17T04:56:09;99906.24;;;11.05;97.77
60642;BME280;46837;52.446;-1.930;2024-03-17T04:57:09;99898.86;;;11.04;97.84
60642;BME280;46837;52.446;-1.930;2024-03-17T04:58:09;99894.80;;;11.06;97.90
60642;BME280;46837;52.446;-1.930;2024-03-17T04:59:09;99899.36;;;11.01;97.88
60642;BME280;46837;52.446;-1.930;2024-03-17T05:00:10;99898.00;;;11.01;98.03
60642;BME280;46837;52.446;-1.930;2024-03-17T05:01:09;99892.30;;;11.03;98.16
60642;BME280;46837;52.446;-1.930;2024-03-17T05:02:09;99899.38;;;10.98;98.09
60642;BME280;46837;52.446;-1.930;2024-03-17T05:03:09;99892.91;;;10.99;98.39
60642;BME280;46837;52.446;-1.930;2024-03-17T05:04:09;99895.60;;;10.97;98.34
60642;BME280;46837;52.446;-1.930;2024-03-17T05:05:09;99891.34;;;10.93;98.35
60642;BME280;46837;52.446;-1.930;2024-03-17T05:06:09;99895.84;;;10.91;98.76
60642;BME280;46837;52.446;-1.930;2024-03-17T05:07:09;99892.71;;;10.92;98.83
60642;BME280;46837;52.446;-1.930;2024-03-17T05:08:09;99892.12;;;10.90;98.75
60642;BME280;46837;52.446;-1.930;2024-03-17T05:09:09;99895.84;;;10.91;98.95
60642;BME280;46837;52.446;-1.930;2024-03-17T05:10:09;99897.63;;;10.92;98.96
60642;BME280;46837;52.446;-1.930;2024-03-17T05:11:09;99890.91;;;10.94;98.70